Time;durP1;ratioP1;P1;durP2;ratioP2;P2;SDS_P1;SDS_P2;PMS_P1;PMS_P2;Temp;Humidity;BMP_temperature;BMP_pressure;BME280_temperature;BME280_humidity;BME280_pressure;Samples;Min_cycle;Max_cycle;Signal;HPM_P1;HPM_P2
2021/10/14 00:01:49;;;;;;;6.03;2.42;;;11.80;99.90;;;;;;5107351;27;20938;-76
2021/10/14 00:04:16;;;;;;;5.38;2.75;;;11.80;99.90;;;;;;5075958;27;20503;-75
2021/10/14 00:06:43;;;;;;;6.88;3.35;;;11.80;99.90;;;;;;5066906;27;20046;-75
2021/10/14 00:09:09;;;;;;;5.95;3.15;;;11.70;99.90;;;;;;5071263;27;20050;-75
2021/10/14 00:11:36;;;;;;;5.43;2.58;;;11.70;99.90;;;;;;5128925;27;20035;-75
2021/10/14 00:14:02;;;;;;;9.05;3.65;;;11.80;99.90;;;;;;5072403;27;20035;-75
2021/10/14 00:16:29;;;;;;;9.48;3.22;;;11.80;99.90;;;;;;5119390;27;20874;-75
2021/10/14 00:18:55;;;;;;;5.75;2.60;;;11.70;99.90;;;;;;5111236;27;20496;-76
2021/10/14 00:21:21;;;;;;;7.07;3.03;;;11.70;99.90;;;;;;5106939;27;20046;-75
2021/10/14 00:23:48;;;;;;;5.15;2.70;;;11.70;99.90;;;;;;5123038;27;20651;-75
2021/10/14 00:26:14;;;;;;;5.72;2.28;;;11.80;99.90;;;;;;5073871;27;20034;-75
2021/10/14 00:28:41;;;;;;;7.22;2.35;;;11.80;99.90;;;;;;5093534;27;20145;-75
2021/10/14 00:31:07;;;;;;;8.82;2.88;;;11.80;99.90;;;;;;5111508;27;20035;-75
2021/10/14 00:33:33;;;;;;;5.60;2.80;;;11.80;99.90;;;;;;5103983;27;20574;-76
2021/10/14 00:36:00;;;;;;;5.32;2.67;;;11.80;99.90;;;;;;5110005;27;20030;-76
2021/10/14 00:38:26;;;;;;;7.75;2.75;;;11.80;99.90;;;;;;5088213;27;20043;-76
2021/10/14 00:40:53;;;;;;;5.30;3.05;;;11.80;99.90;;;;;;5090030;27;20487;-77
2021/10/14 00:43:19;;;;;;;5.07;2.60;;;11.80;99.90;;;;;;5107835;27;20038;-77
2021/10/14 00:45:46;;;;;;;5.63;2.15;;;11.90;99.90;;;;;;5106332;27;20047;-77
2021/10/14 00:48:12;;;;;;;7.30;3.67;;;11.90;99.90;;;;;;5104740;27;20046;-77
2021/10/14 00:50:39;;;;;;;8.30;3.58;;;11.90;99.90;;;;;;5088398;27;20513;-77
2021/10/14 00:53:07;;;;;;;6.45;3.45;;;11.90;99.90;;;;;;5118714;27;20046;-77
2021/10/14 00:55:35;;;;;;;4.68;2.53;;;11.90;99.90;;;;;;5108735;27;20039;-77
2021/10/14 00:58:02;;;;;;;6.47;3.25;;;11.90;99.90;;;;;;5118551;27;20054;-77
2021/10/14 01:00:28;;;;;;;12.82;4.60;;;11.90;99.90;;;;;;5120284;27;20578;-77
2021/10/14 01:02:55;;;;;;;9.95;4.25;;;11.90;99.90;;;;;;5123034;27;20050;-77
2021/10/14 01:05:21;;;;;;;8.73;3.88;;;11.90;99.90;;;;;;5087834;27;20511;-77
2021/10/14 01:07:48;;;;;;;8.02;4.03;;;11.90;99.90;;;;;;5103267;27;20039;-77
2021/10/14 01:10:14;;;;;;;8.00;3.60;;;11.90;99.90;;;;;;5079500;27;20490;-83
2021/10/14 01:12:42;;;;;;;11.38;4.50;;;11.90;99.90;;;;;;5106711;28;20502;-82
2021/10/14 01:15:24;;;;;;;7.63;4.70;;;11.90;99.90;;;;;;5073963;28;20035;-83
2021/10/14 01:17:51;;;;;;;12.88;4.93;;;11.90;99.90;;;;;;5110225;28;20384;-86
2021/10/14 01:20:17;;;;;;;9.75;6.13;;;11.90;99.90;;;;;;5093765;27;20039;-82
2021/10/14 01:22:44;;;;;;;9.23;5.78;;;11.90;99.90;;;;;;5091172;28;20035;-81
2021/10/14 01:25:10;;;;;;;13.10;6.15;;;11.90;99.90;;;;;;5108238;28;20027;-82
2021/10/14 01:27:37;;;;;;;12.23;7.30;;;11.90;99.90;;;;;;5105766;27;20035;-83
2021/10/14 01:30:06;;;;;;;14.05;7.40;;;12.00;99.90;;;;;;5100655;27;20054;-82
2021/10/14 01:32:33;;;;;;;11.35;7.22;;;12.00;99.90;;;;;;5099420;27;21060;-82
2021/10/14 01:35:00;;;;;;;15.52;9.25;;;12.00;99.90;;;;;;5110938;27;20914;-82
2021/10/14 01:37:27;;;;;;;18.60;9.48;;;12.00;99.90;;;;;;5110841;27;20526;-82
2021/10/14 01:39:54;;;;;;;14.32;10.30;;;12.00;99.90;;;;;;5110484;27;20039;-82
2021/10/14 01:42:20;;;;;;;12.25;9.63;;;11.90;99.90;;;;;;5049844;27;20050;-82
2021/10/14 01:44:47;;;;;;;15.93;10.50;;;12.00;99.90;;;;;;5110396;27;20483;-82
2021/10/14 01:47:13;;;;;;;13.30;9.48;;;11.90;99.90;;;;;;5097336;27;20897;-83
2021/10/14 01:49:40;;;;;;;17.08;10.82;;;11.90;99.90;;;;;;5113763;27;20039;-82
2021/10/14 01:52:06;;;;;;;16.40;10.50;;;11.90;99.90;;;;;;5094640;27;20043;-82
2021/10/14 01:54:33;;;;;;;22.23;12.10;;;11.90;99.90;;;;;;5111404;27;20046;-82
2021/10/14 01:56:59;;;;;;;16.90;12.10;;;11.90;99.90;;;;;;5095377;27;20503;-82
2021/10/14 01:59:25;;;;;;;19.80;13.18;;;11.90;99.90;;;;;;5115408;27;20062;-82
2021/10/14 02:01:52;;;;;;;17.83;12.80;;;11.90;99.90;;;;;;5113476;27;20492;-82
2021/10/14 02:04:18;;;;;;;17.33;13.40;;;12.00;99.90;;;;;;5077038;27;20709;-82
2021/10/14 02:06:45;;;;;;;20.92;14.40;;;12.00;99.90;;;;;;5121031;27;20039;-82
2021/10/14 02:09:11;;;;;;;17.63;12.38;;;12.00;99.90;;;;;;5095646;27;20050;-82
2021/10/14 02:11:37;;;;;;;22.30;14.90;;;12.00;99.90;;;;;;5091686;27;20047;-82
2021/10/14 02:14:04;;;;;;;25.75;15.32;;;12.00;99.90;;;;;;5125251;27;20078;-82
2021/10/14 02:16:30;;;;;;;22.77;13.48;;;12.00;99.90;;;;;;5093661;27;20039;-82
2021/10/14 02:18:57;;;;;;;24.25;13.02;;;12.00;99.90;;;;;;5111178;27;20526;-83
2021/10/14 02:21:23;;;;;;;22.30;14.88;;;12.00;99.90;;;;;;5094868;27;20035;-82
2021/10/14 02:23:50;;;;;;;23.83;14.75;;;12.00;99.90;;;;;;5094201;27;20035;-82
2021/10/14 02:26:16;;;;;;;24.33;15.35;;;12.00;99.90;;;;;;5095886;27;20142;-82
2021/10/14 02:28:42;;;;;;;20.73;14.88;;;12.00;99.90;;;;;;5093108;27;20050;-82
2021/10/14 02:31:09;;;;;;;18.25;12.57;;;12.00;99.90;;;;;;5095655;27;20066;-82
2021/10/14 02:33:35;;;;;;;20.58;13.65;;;12.10;99.90;;;;;;5121073;27;20039;-82
2021/10/14 02:36:01;;;;;;;26.77;16.80;;;12.10;99.90;;;;;;5110467;27;20388;-82
2021/10/14 02:38:28;;;;;;;23.05;15.73;;;12.10;99.90;;;;;;5120917;27;20039;-83
2021/10/14 02:40:54;;;;;;;25.67;16.30;;;12.10;99.90;;;;;;5121882;27;20395;-82
2021/10/14 02:43:21;;;;;;;26.60;15.48;;;12.10;99.90;;;;;;5091234;28;20068;-82
2021/10/14 02:45:47;;;;;;;27.75;17.58;;;12.10;99.90;;;;;;5110101;27;20046;-82
2021/10/14 02:48:14;;;;;;;25.58;15.90;;;12.10;99.90;;;;;;5112024;27;20039;-83
2021/10/14 02:50:41;;;;;;;32.33;20.17;;;12.10;99.90;;;;;;5091022;27;20054;-82
2021/10/14 02:53:07;;;;;;;30.45;18.25;;;12.10;99.90;;;;;;5078454;27;20043;-82
2021/10/14 02:55:33;;;;;;;29.23;19.58;;;12.20;99.90;;;;;;5075926;27;20030;-82
2021/10/14 02:58:00;;;;;;;34.47;20.73;;;12.20;99.90;;;;;;5109987;27;20046;-83
2021/10/14 03:00:26;;;;;;;30.00;17.92;;;12.20;99.90;;;;;;5110681;27;20046;-83
2021/10/14 03:02:53;;;;;;;37.40;20.73;;;12.20;99.90;;;;;;5109818;27;20047;-82
2021/10/14 03:05:19;;;;;;;32.97;19.92;;;12.20;99.90;;;;;;5093806;27;20043;-82
2021/10/14 03:07:45;;;;;;;33.72;20.33;;;12.20;99.90;;;;;;5092654;27;20522;-82
2021/10/14 03:10:12;;;;;;;31.00;19.08;;;12.20;99.90;;;;;;5110964;27;20046;-82
2021/10/14 03:12:39;;;;;;;33.15;18.85;;;12.20;99.90;;;;;;5093035;27;20035;-83
2021/10/14 03:15:06;;;;;;;27.38;17.08;;;12.20;99.90;;;;;;5112087;27;20718;-82
2021/10/14 03:17:32;;;;;;;39.13;21.85;;;12.30;99.90;;;;;;5120278;27;20514;-84
2021/10/14 03:19:59;;;;;;;31.25;19.02;;;12.20;99.90;;;;;;5126245;27;20047;-82
2021/10/14 03:22:25;;;;;;;30.50;18.67;;;12.30;99.90;;;;;;5095666;27;20042;-82
2021/10/14 03:24:52;;;;;;;33.33;19.92;;;12.30;99.90;;;;;;5076764;27;20054;-82
2021/10/14 03:27:18;;;;;;;34.85;20.38;;;12.30;99.90;;;;;;5109520;27;20027;-83
2021/10/14 03:29:44;;;;;;;33.53;20.83;;;12.30;99.90;;;;;;5076146;27;20496;-81
2021/10/14 03:32:11;;;;;;;35.53;20.90;;;12.30;99.90;;;;;;5109227;27;20039;-83
2021/10/14 03:34:37;;;;;;;32.60;20.02;;;12.30;99.90;;;;;;5112830;27;20032;-83
2021/10/14 03:37:04;;;;;;;31.90;20.08;;;12.30;99.90;;;;;;5094481;27;20035;-82
2021/10/14 03:39:30;;;;;;;31.83;21.60;;;12.30;99.90;;;;;;5091644;27;20065;-83
2021/10/14 03:41:57;;;;;;;31.40;20.80;;;12.30;99.90;;;;;;5092074;27;20046;-84
2021/10/14 03:44:24;;;;;;;31.70;19.73;;;12.20;99.90;;;;;;5075733;27;20046;-85
2021/10/14 03:46:50;;;;;;;20.88;14.40;;;12.20;99.90;;;;;;5109051;27;20050;-83
2021/10/14 03:49:16;;;;;;;34.50;19.75;;;12.30;99.90;;;;;;5106411;27;20733;-82
2021/10/14 03:51:46;;;;;;;28.85;18.63;;;12.30;99.90;;;;;;5090654;27;20043;-81
2021/10/14 03:54:16;;;;;;;28.77;18.50;;;12.30;99.90;;;;;;5092441;27;20047;-82
2021/10/14 03:56:42;;;;;;;29.73;18.73;;;12.30;99.90;;;;;;5112436;27;20486;-76
2021/10/14 03:59:08;;;;;;;29.30;19.77;;;12.30;99.90;;;;;;5091041;27;20066;-76
2021/10/14 04:01:35;;;;;;;34.35;22.17;;;12.30;99.90;;;;;;5089690;27;20626;-76
2021/10/14 04:04:01;;;;;;;31.52;19.40;;;12.30;99.90;;;;;;5093677;27;20027;-75
2021/10/14 04:06:28;;;;;;;32.80;20.08;;;12.30;99.90;;;;;;5096146;27;20058;-76
2021/10/14 04:08:54;;;;;;;24.63;17.48;;;12.30;99.90;;;;;;5089048;27;20031;-75
2021/10/14 04:11:20;;;;;;;24.50;17.33;;;12.30;99.90;;;;;;5094730;27;20039;-75
2021/10/14 04:13:47;;;;;;;26.45;19.58;;;12.30;99.90;;;;;;5085419;27;20089;-76
2021/10/14 04:16:13;;;;;;;26.98;19.13;;;12.30;99.90;;;;;;5122485;27;20937;-76
2021/10/14 04:18:40;;;;;;;29.85;19.27;;;12.30;99.90;;;;;;5076466;27;20493;-76
2021/10/14 04:21:06;;;;;;;29.85;19.00;;;12.30;99.90;;;;;;5107348;27;20046;-76
2021/10/14 04:23:33;;;;;;;28.10;18.33;;;12.30;99.90;;;;;;5075284;27;20573;-75
2021/10/14 04:26:00;;;;;;;24.92;19.40;;;12.30;99.90;;;;;;5116312;27;20030;-75
2021/10/14 04:28:26;;;;;;;29.50;21.25;;;12.30;99.90;;;;;;5105112;27;20038;-76
2021/10/14 04:30:52;;;;;;;28.83;18.50;;;12.30;99.90;;;;;;5106313;27;20042;-76
2021/10/14 04:33:19;;;;;;;27.42;19.38;;;12.30;99.90;;;;;;5119386;27;20045;-76
2021/10/14 04:35:45;;;;;;;31.30;21.63;;;12.30;99.90;;;;;;5094732;27;20499;-76
2021/10/14 04:38:15;;;;;;;30.60;20.27;;;12.30;99.90;;;;;;5107805;27;20054;-76
2021/10/14 04:40:41;;;;;;;33.33;21.38;;;12.30;99.90;;;;;;5094826;27;20042;-75
2021/10/14 04:43:07;;;;;;;38.17;23.98;;;12.30;99.90;;;;;;5074418;27;20027;-76
2021/10/14 04:45:34;;;;;;;29.40;21.35;;;12.30;99.90;;;;;;5123219;27;20502;-75
2021/10/14 04:48:00;;;;;;;32.05;23.08;;;12.30;99.90;;;;;;5079760;27;20471;-76
2021/10/14 04:50:27;;;;;;;31.35;20.92;;;12.30;99.90;;;;;;5107295;27;20065;-76
2021/10/14 04:52:53;;;;;;;27.48;21.05;;;12.30;99.90;;;;;;5087456;27;20054;-74
2021/10/14 04:55:20;;;;;;;33.08;22.40;;;12.30;99.90;;;;;;5105332;27;20031;-76
2021/10/14 04:57:46;;;;;;;30.10;20.63;;;12.30;99.90;;;;;;5055030;27;20039;-75
2021/10/14 05:00:13;;;;;;;25.33;19.05;;;12.30;99.90;;;;;;5087833;27;20030;-75
2021/10/14 05:02:41;;;;;;;23.50;17.17;;;12.30;99.90;;;;;;5106409;27;20444;-76
2021/10/14 05:05:07;;;;;;;30.70;22.27;;;12.30;99.90;;;;;;5122014;27;20047;-75
2021/10/14 05:07:34;;;;;;;23.48;17.50;;;12.30;99.90;;;;;;5097381;27;20044;-75
2021/10/14 05:10:00;;;;;;;28.85;20.95;;;12.30;99.90;;;;;;5108115;27;20035;-80
2021/10/14 05:12:27;;;;;;;24.40;19.65;;;12.40;99.90;;;;;;5110224;27;20043;-80
2021/10/14 05:14:53;;;;;;;26.02;19.90;;;12.30;99.90;;;;;;5085587;28;20112;-80
2021/10/14 05:17:19;;;;;;;25.73;19.63;;;12.30;99.90;;;;;;5107088;28;20043;-80
2021/10/14 05:19:46;;;;;;;29.70;22.27;;;12.40;99.90;;;;;;5093829;27;20046;-80
2021/10/14 05:22:12;;;;;;;25.50;20.25;;;12.40;99.90;;;;;;5109312;27;20042;-80
2021/10/14 05:24:39;;;;;;;26.83;21.30;;;12.40;99.90;;;;;;5109840;27;20456;-80
2021/10/14 05:27:05;;;;;;;34.00;20.80;;;12.30;99.90;;;;;;5104345;27;20039;-80
2021/10/14 05:29:32;;;;;;;26.30;20.90;;;12.30;99.90;;;;;;5113775;27;20031;-79
2021/10/14 05:31:58;;;;;;;25.80;20.40;;;12.30;99.90;;;;;;5120941;27;20036;-78
2021/10/14 05:34:25;;;;;;;24.38;19.85;;;12.30;99.90;;;;;;5104964;28;20476;-81
2021/10/14 05:36:51;;;;;;;32.20;23.77;;;12.30;99.90;;;;;;5087407;28;20036;-82
2021/10/14 05:39:17;;;;;;;27.63;20.80;;;12.30;99.90;;;;;;5110900;27;20054;-79
2021/10/14 05:41:44;;;;;;;26.88;19.83;;;12.20;99.90;;;;;;5093452;28;20872;-80
2021/10/14 05:44:10;;;;;;;30.42;21.65;;;12.30;99.90;;;;;;5095257;27;20947;-80
2021/10/14 05:46:40;;;;;;;25.15;19.23;;;12.30;99.90;;;;;;5107608;28;20040;-81
2021/10/14 05:49:08;;;;;;;28.70;21.73;;;12.30;99.90;;;;;;5093137;27;20039;-81
2021/10/14 05:51:35;;;;;;;27.27;20.83;;;12.30;99.90;;;;;;5112698;27;20031;-79
2021/10/14 05:54:02;;;;;;;21.80;16.60;;;12.30;99.90;;;;;;5092280;27;20045;-80
2021/10/14 05:56:29;;;;;;;27.67;19.38;;;12.30;99.90;;;;;;5121961;27;20039;-79
2021/10/14 05:58:55;;;;;;;26.92;20.25;;;12.30;99.90;;;;;;5092285;28;20042;-81
2021/10/14 06:01:22;;;;;;;27.70;19.98;;;12.30;99.90;;;;;;5091780;27;20039;-80
2021/10/14 06:03:49;;;;;;;32.65;23.75;;;12.30;99.90;;;;;;5122792;27;20046;-79
2021/10/14 06:06:15;;;;;;;37.25;24.15;;;12.30;99.90;;;;;;5103665;27;20032;-78
2021/10/14 06:08:42;;;;;;;22.77;16.95;;;12.30;99.90;;;;;;5088471;27;20035;-80
2021/10/14 06:11:08;;;;;;;25.88;18.08;;;12.40;99.90;;;;;;5088481;28;20040;-81
2021/10/14 06:13:36;;;;;;;27.35;19.88;;;12.40;99.90;;;;;;5107161;28;20038;-82
2021/10/14 06:16:03;;;;;;;26.55;20.38;;;12.40;99.90;;;;;;5091881;27;20038;-79
2021/10/14 06:18:29;;;;;;;22.60;17.50;;;12.40;99.90;;;;;;5091156;27;20508;-81
2021/10/14 06:20:56;;;;;;;29.08;19.70;;;12.50;99.90;;;;;;5112659;27;20093;-80
2021/10/14 06:23:22;;;;;;;23.90;16.73;;;12.50;99.90;;;;;;5094924;27;20042;-80
2021/10/14 06:25:48;;;;;;;26.77;18.83;;;12.50;99.90;;;;;;5111415;27;20027;-80
2021/10/14 06:28:15;;;;;;;35.88;22.05;;;12.50;99.90;;;;;;5125405;27;20031;-81
2021/10/14 06:30:41;;;;;;;31.70;21.42;;;12.50;99.90;;;;;;5126050;27;20035;-80
2021/10/14 06:33:08;;;;;;;29.08;21.73;;;12.50;99.90;;;;;;5110379;27;20039;-80
2021/10/14 06:35:34;;;;;;;30.88;23.98;;;12.50;99.90;;;;;;5091187;27;20427;-80
2021/10/14 06:38:01;;;;;;;30.48;21.98;;;12.60;99.90;;;;;;5109697;27;20046;-82
2021/10/14 06:40:27;;;;;;;34.13;24.27;;;12.60;99.90;;;;;;5093261;27;20043;-80
2021/10/14 06:42:54;;;;;;;31.83;21.52;;;12.60;99.90;;;;;;5090014;27;20078;-81
2021/10/14 06:45:20;;;;;;;34.83;22.42;;;12.60;99.90;;;;;;5111057;27;20396;-79
2021/10/14 06:47:47;;;;;;;34.15;23.38;;;12.60;99.90;;;;;;5059584;27;20035;-81
2021/10/14 06:50:13;;;;;;;33.30;23.88;;;12.60;99.90;;;;;;5112860;27;20043;-80
2021/10/14 06:52:39;;;;;;;34.22;24.00;;;12.60;99.90;;;;;;5112029;27;20492;-80
2021/10/14 06:55:06;;;;;;;41.35;25.33;;;12.70;99.90;;;;;;5075723;27;20039;-79
2021/10/14 06:57:33;;;;;;;35.75;24.05;;;12.70;99.90;;;;;;5109550;27;20039;-79
2021/10/14 07:00:00;;;;;;;36.88;25.67;;;12.70;99.90;;;;;;5090829;27;20050;-79
2021/10/14 07:02:26;;;;;;;46.20;28.17;;;12.70;99.90;;;;;;5090897;27;20423;-79
2021/10/14 07:04:53;;;;;;;32.13;24.38;;;12.70;99.90;;;;;;5108487;27;20042;-79
2021/10/14 07:07:19;;;;;;;42.15;27.65;;;12.70;99.90;;;;;;5088547;27;20038;-81
2021/10/14 07:09:45;;;;;;;39.70;25.35;;;12.70;99.90;;;;;;5088026;27;20586;-78
2021/10/14 07:12:12;;;;;;;39.53;26.45;;;12.70;99.90;;;;;;5072558;27;20035;-78
2021/10/14 07:14:40;;;;;;;39.50;26.67;;;12.70;99.90;;;;;;5113773;27;20530;-79
2021/10/14 07:17:07;;;;;;;44.35;28.92;;;12.70;99.90;;;;;;5107704;27;20031;-77
2021/10/14 07:19:35;;;;;;;49.17;31.42;;;12.80;99.90;;;;;;5108054;27;20066;-80
2021/10/14 07:22:02;;;;;;;43.10;26.35;;;12.80;99.90;;;;;;5089254;27;20046;-80
2021/10/14 07:24:32;;;;;;;34.47;23.70;;;12.80;99.90;;;;;;5114758;27;20035;-79
2021/10/14 07:26:59;;;;;;;39.30;26.55;;;12.80;99.90;;;;;;5114542;27;20031;-80
2021/10/14 07:29:26;;;;;;;43.03;26.77;;;12.90;99.90;;;;;;5092652;27;20090;-82
2021/10/14 07:31:53;;;;;;;42.15;28.45;;;12.90;99.90;;;;;;5109408;27;20050;-82
2021/10/14 07:34:19;;;;;;;40.20;26.73;;;12.90;99.90;;;;;;5060335;27;20516;-82
2021/10/14 07:36:46;;;;;;;48.08;30.48;;;12.90;99.90;;;;;;5106046;27;20043;-79
2021/10/14 07:39:12;;;;;;;37.08;25.35;;;13.00;99.90;;;;;;5092949;27;20046;-79
2021/10/14 07:41:38;;;;;;;36.47;23.85;;;12.90;99.90;;;;;;5113719;27;20047;-79
2021/10/14 07:44:06;;;;;;;44.80;26.05;;;13.00;99.90;;;;;;5115972;27;20039;-79
2021/10/14 07:46:32;;;;;;;35.80;25.05;;;13.00;99.90;;;;;;5113757;27;20058;-79
2021/10/14 07:48:58;;;;;;;45.38;29.02;;;13.00;99.90;;;;;;5107960;27;20051;-79
2021/10/14 07:51:25;;;;;;;39.67;26.30;;;13.00;99.90;;;;;;5110097;27;20032;-79
2021/10/14 07:53:51;;;;;;;39.28;27.83;;;13.10;99.90;;;;;;5112767;27;20058;-79
2021/10/14 07:56:18;;;;;;;39.25;24.30;;;13.10;99.90;;;;;;5094206;28;20035;-78
2021/10/14 07:58:44;;;;;;;39.92;27.25;;;13.10;99.90;;;;;;5110909;27;20050;-79
2021/10/14 08:01:11;;;;;;;42.45;30.42;;;13.10;99.90;;;;;;5107538;27;20035;-79
2021/10/14 08:03:38;;;;;;;39.28;28.50;;;13.20;99.90;;;;;;5111380;27;20048;-78
2021/10/14 08:06:05;;;;;;;42.20;28.67;;;13.20;99.90;;;;;;5106118;27;20034;-79
2021/10/14 08:08:32;;;;;;;37.20;27.15;;;13.20;99.90;;;;;;5114273;27;20034;-78
2021/10/14 08:10:58;;;;;;;41.13;26.52;;;13.20;99.90;;;;;;5074592;27;20054;-78
2021/10/14 08:13:25;;;;;;;37.58;26.80;;;13.20;99.90;;;;;;5091935;27;20786;-79
2021/10/14 08:15:52;;;;;;;32.25;22.38;;;13.20;99.90;;;;;;5093593;27;20039;-78
2021/10/14 08:18:21;;;;;;;32.30;23.60;;;13.30;99.90;;;;;;5093675;28;20039;-79
2021/10/14 08:20:50;;;;;;;48.15;31.90;;;13.30;99.90;;;;;;5086110;28;20047;-79
2021/10/14 08:23:17;;;;;;;40.85;29.17;;;13.40;99.90;;;;;;5118217;27;20027;-79
2021/10/14 08:25:43;;;;;;;33.38;25.58;;;13.40;99.90;;;;;;5106409;27;20047;-79
2021/10/14 08:28:10;;;;;;;36.42;25.02;;;13.40;99.90;;;;;;5119667;27;20044;-80
2021/10/14 08:30:36;;;;;;;39.13;27.48;;;13.40;99.90;;;;;;5104092;27;20036;-79
2021/10/14 08:33:03;;;;;;;46.45;32.30;;;13.50;99.90;;;;;;5088243;28;20393;-79
2021/10/14 08:35:35;;;;;;;40.75;27.80;;;13.50;99.90;;;;;;5109107;27;20035;-79
2021/10/14 08:38:07;;;;;;;32.80;23.98;;;13.50;99.90;;;;;;5072036;27;20040;-79
2021/10/14 08:40:35;;;;;;;37.77;27.27;;;13.50;99.90;;;;;;5108333;27;20046;-79
2021/10/14 08:43:09;;;;;;;39.65;27.92;;;13.50;99.90;;;;;;5084849;27;20040;-79
2021/10/14 08:45:38;;;;;;;36.70;26.52;;;13.50;99.90;;;;;;5108003;27;20035;-79
2021/10/14 08:48:05;;;;;;;31.00;25.10;;;13.50;99.90;;;;;;5105502;27;20102;-79
2021/10/14 08:50:34;;;;;;;34.95;24.88;;;13.60;99.90;;;;;;5109339;27;20039;-79
2021/10/14 08:53:01;;;;;;;34.25;26.00;;;13.60;99.90;;;;;;5103057;28;20032;-79
2021/10/14 08:55:27;;;;;;;35.13;25.38;;;13.70;99.90;;;;;;5101457;27;20358;-79
2021/10/14 08:57:54;;;;;;;32.55;25.45;;;13.70;99.90;;;;;;5106210;27;20380;-79
2021/10/14 09:00:21;;;;;;;36.85;27.75;;;13.70;99.90;;;;;;5103247;27;20031;-79
2021/10/14 09:02:47;;;;;;;29.13;24.13;;;13.70;99.90;;;;;;5100633;28;20070;-79
2021/10/14 09:05:15;;;;;;;32.55;26.08;;;13.70;99.90;;;;;;5069709;28;20040;-79
2021/10/14 09:07:42;;;;;;;27.42;22.58;;;13.80;99.90;;;;;;5084740;28;20043;-79
2021/10/14 09:10:12;;;;;;;34.40;25.33;;;13.80;99.90;;;;;;5101748;28;20124;-79
2021/10/14 09:12:42;;;;;;;34.78;26.65;;;13.90;99.90;;;;;;5103319;28;20420;-79
2021/10/14 09:15:11;;;;;;;35.08;27.92;;;13.90;99.90;;;;;;5103321;28;20035;-80
2021/10/14 09:17:37;;;;;;;28.92;21.80;;;13.90;99.90;;;;;;5101779;28;20495;-80
2021/10/14 09:20:24;;;;;;;34.17;25.23;;;14.00;99.90;;;;;;5101717;28;20388;-79
2021/10/14 09:23:04;;;;;;;30.17;24.23;;;14.10;99.90;;;;;;5102749;28;20032;-80
2021/10/14 09:25:43;;;;;;;29.77;22.58;;;14.10;99.90;;;;;;5082465;28;20510;-79
2021/10/14 09:28:15;;;;;;;30.00;22.65;;;14.10;99.90;;;;;;5101001;28;20047;-79
2021/10/14 09:30:53;;;;;;;27.02;22.63;;;14.20;99.90;;;;;;5098193;28;20035;-79
2021/10/14 09:33:41;;;;;;;31.58;23.05;;;14.20;99.90;;;;;;5102276;28;20042;-79
2021/10/14 09:36:28;;;;;;;27.45;21.35;;;14.20;99.90;;;;;;5103464;28;20046;-79
2021/10/14 09:39:06;;;;;;;26.92;21.65;;;14.30;99.90;;;;;;5100867;28;20511;-78
2021/10/14 09:41:41;;;;;;;29.42;23.48;;;14.30;99.90;;;;;;5100518;28;20035;-79
2021/10/14 09:44:18;;;;;;;29.33;22.30;;;14.40;99.90;;;;;;5103732;28;20035;-80
2021/10/14 09:46:49;;;;;;;28.95;22.23;;;14.50;99.90;;;;;;5102464;28;20043;-79
2021/10/14 09:49:28;;;;;;;27.00;19.40;;;14.60;99.90;;;;;;5099801;28;20499;-79
2021/10/14 09:51:57;;;;;;;27.23;20.85;;;14.70;99.90;;;;;;5100427;28;20496;-80
2021/10/14 09:54:24;;;;;;;30.27;21.05;;;14.70;99.90;;;;;;5102875;28;20039;-80
2021/10/14 09:56:50;;;;;;;28.23;21.05;;;14.70;99.90;;;;;;5105010;28;20028;-79
2021/10/14 09:59:17;;;;;;;23.40;19.67;;;14.70;99.90;;;;;;5101403;28;20047;-80
2021/10/14 10:01:43;;;;;;;30.08;22.52;;;14.70;99.90;;;;;;5109398;27;20058;-79
2021/10/14 10:04:10;;;;;;;28.48;21.38;;;14.70;99.90;;;;;;5113039;27;20031;-80
2021/10/14 10:06:38;;;;;;;27.00;19.40;;;14.60;99.90;;;;;;5093455;27;20035;-80
2021/10/14 10:09:11;;;;;;;25.52;19.40;;;14.70;99.90;;;;;;5126548;27;20031;-80
2021/10/14 10:11:40;;;;;;;26.65;19.20;;;14.70;99.90;;;;;;5111212;27;20111;-80
2021/10/14 10:14:07;;;;;;;37.45;26.50;;;14.60;99.90;;;;;;5112786;27;20031;-80
2021/10/14 10:16:34;;;;;;;27.02;21.20;;;14.60;99.90;;;;;;5116996;27;20054;-79
2021/10/14 10:19:01;;;;;;;21.90;19.20;;;14.60;99.90;;;;;;5118297;27;20047;-80
2021/10/14 10:21:33;;;;;;;22.75;19.85;;;14.60;99.90;;;;;;5108628;27;20028;-80
2021/10/14 10:24:07;;;;;;;27.80;20.92;;;14.70;99.90;;;;;;5108145;27;20081;-80
2021/10/14 10:26:36;;;;;;;28.95;21.20;;;14.70;99.90;;;;;;5110043;27;20043;-80
2021/10/14 10:29:14;;;;;;;31.83;22.48;;;14.60;99.90;;;;;;5109298;27;20051;-81
2021/10/14 10:31:53;;;;;;;36.63;26.02;;;14.60;99.90;;;;;;5111813;27;20470;-80
2021/10/14 10:34:35;;;;;;;28.98;23.30;;;14.60;99.90;;;;;;5118344;27;20035;-80
2021/10/14 10:37:30;;;;;;;30.95;24.48;;;14.70;99.90;;;;;;5107403;27;20031;-80
2021/10/14 10:40:09;;;;;;;29.17;24.08;;;14.70;99.90;;;;;;5102991;27;20042;-80
2021/10/14 10:42:40;;;;;;;27.00;22.02;;;14.70;99.90;;;;;;5097749;27;20035;-80
2021/10/14 10:45:22;;;;;;;27.80;21.60;;;14.70;99.90;;;;;;5117765;27;20333;-80
2021/10/14 10:48:03;;;;;;;30.95;22.92;;;14.70;99.90;;;;;;5081431;27;20038;-80
2021/10/14 10:50:29;;;;;;;29.42;24.10;;;14.80;99.90;;;;;;5109367;27;20038;-80
2021/10/14 10:53:14;;;;;;;27.33;21.80;;;15.10;99.90;;;;;;5117760;27;20027;-80
2021/10/14 10:55:46;;;;;;;28.15;22.20;;;15.40;99.90;;;;;;5108499;27;20041;-80
2021/10/14 10:58:42;;;;;;;27.85;22.02;;;15.50;99.90;;;;;;5107758;27;20476;-80
2021/10/14 11:01:09;;;;;;;27.70;21.40;;;15.70;99.90;;;;;;5110942;27;20035;-79
2021/10/14 11:03:35;;;;;;;25.70;21.30;;;15.90;99.90;;;;;;5112294;27;20120;-80
2021/10/14 11:06:08;;;;;;;28.73;21.58;;;16.00;99.90;;;;;;5123542;27;20038;-83
2021/10/14 11:08:36;;;;;;;28.42;22.23;;;16.00;99.90;;;;;;5116833;27;20030;-81
2021/10/14 11:11:08;;;;;;;25.10;22.27;;;16.10;99.90;;;;;;5072314;27;20047;-84
2021/10/14 11:13:37;;;;;;;25.83;19.15;;;16.10;99.90;;;;;;5119963;27;20108;-82
2021/10/14 11:16:07;;;;;;;29.58;21.13;;;16.10;99.90;;;;;;5106391;27;20035;-81
2021/10/14 11:18:35;;;;;;;22.85;19.90;;;16.00;99.90;;;;;;5119092;27;20392;-81
2021/10/14 11:21:10;;;;;;;25.27;21.73;;;16.00;99.90;;;;;;5089048;27;20062;-81
2021/10/14 11:23:58;;;;;;;29.10;21.65;;;16.00;99.90;;;;;;5107222;27;20078;-81
2021/10/14 11:26:33;;;;;;;22.17;19.77;;;15.90;99.90;;;;;;5104445;27;20027;-81
2021/10/14 11:29:08;;;;;;;22.33;19.00;;;15.90;99.90;;;;;;5125156;27;20913;-81
2021/10/14 11:31:36;;;;;;;21.65;19.38;;;15.90;99.90;;;;;;5128114;27;20038;-81
2021/10/14 11:34:07;;;;;;;29.02;22.85;;;15.90;99.90;;;;;;5113339;27;20936;-81
2021/10/14 11:36:35;;;;;;;23.33;19.65;;;15.80;99.90;;;;;;5106046;27;20035;-81
2021/10/14 11:39:07;;;;;;;23.10;19.75;;;15.70;99.90;;;;;;5088448;27;20036;-81
2021/10/14 11:41:35;;;;;;;25.00;21.30;;;15.60;99.90;;;;;;5104584;27;20035;-81
2021/10/14 11:44:04;;;;;;;22.00;19.65;;;15.60;99.90;;;;;;5093947;27;20039;-81
2021/10/14 11:46:33;;;;;;;22.30;18.17;;;15.50;99.90;;;;;;5107130;27;20039;-82
2021/10/14 11:49:02;;;;;;;22.52;19.63;;;15.70;99.90;;;;;;5104113;27;20035;-81
2021/10/14 11:51:32;;;;;;;24.08;18.75;;;16.00;99.90;;;;;;5111410;27;20518;-81
2021/10/14 11:53:58;;;;;;;21.70;17.73;;;16.40;99.90;;;;;;5091570;28;20047;-82
2021/10/14 11:56:26;;;;;;;22.15;18.02;;;16.60;99.90;;;;;;5074229;27;20040;-82
2021/10/14 11:58:53;;;;;;;19.88;16.85;;;16.70;99.90;;;;;;5068110;27;20412;-82
2021/10/14 12:01:24;;;;;;;21.17;16.23;;;16.70;99.90;;;;;;5116318;27;20035;-82
2021/10/14 12:03:50;;;;;;;16.08;13.52;;;16.70;99.90;;;;;;5105629;27;20518;-82
2021/10/14 12:06:19;;;;;;;13.90;12.38;;;16.60;99.90;;;;;;5086603;27;20028;-82
2021/10/14 12:08:46;;;;;;;16.23;12.43;;;16.50;99.90;;;;;;5088366;27;20389;-82
2021/10/14 12:11:18;;;;;;;13.82;12.30;;;16.30;99.90;;;;;;5104142;27;20051;-82
2021/10/14 12:13:59;;;;;;;17.52;13.30;;;16.10;99.90;;;;;;5114625;27;20372;-83
2021/10/14 12:16:27;;;;;;;16.80;13.38;;;16.00;99.90;;;;;;5088656;27;20519;-82
2021/10/14 12:18:54;;;;;;;15.02;13.23;;;15.90;99.90;;;;;;5086132;27;20043;-83
2021/10/14 12:21:47;;;;;;;15.32;13.25;;;15.90;99.90;;;;;;5128157;27;20043;-82
2021/10/14 12:24:18;;;;;;;17.80;14.32;;;15.80;99.90;;;;;;5088660;27;20058;-82
2021/10/14 12:26:48;;;;;;;14.45;12.98;;;15.70;99.90;;;;;;5116988;27;20052;-82
2021/10/14 12:29:24;;;;;;;17.45;15.63;;;15.70;99.90;;;;;;5106716;27;20475;-82
2021/10/14 12:32:14;;;;;;;21.45;16.45;;;15.70;99.90;;;;;;5111602;27;20109;-82
2021/10/14 12:34:42;;;;;;;17.85;14.38;;;15.70;99.90;;;;;;5074549;27;20043;-82